الصفحة الرئيسية
METAR-TAF:

METAR-TAF

مطار :

مطار دمشق الدولي

دمشق, سوريا

دائرة عرض: 33-25N, خط طول: 036-31E, ارتفاع: 608 متر

مراقبة الطقس الحالي

تاريخ ووقت الإصدار 29 دقيقة قبل الساعة 06:00UTC
ريح 10 عقدة من الجنوب الغربي
درجة الحرارة 27°درجة مئوية
الرطوبة 42%
ضغط 1008 hPa
الرؤية 10 كم أو أكثر
الغيوم لا تقل 1500 م ولا وجود لمزنة ركامية السحاب الأسود

METAR: OSDI 160600Z 22010KT CAVOK 27/13 Q1008

زمن: 09:29 (06:29 UTC)

توقعات

تاريخ ووقت الإصدار 1ساعة و 29 دقيقة قبل الساعة 05:00UTC
التوقعات صالحة من16 الساعة 06 UTC إلى 17 الساعة 12 UTC
ريح 10 عقدة من الجنوب الغربي
الرؤية 10 كم أو أكثر
الغيوم لا تقل 1500 م ولا وجود لمزنة ركامية السحاب الأسود
مؤقت
من 16 الساعة 12 UTC إلى 16 الساعة 18 UTC
ريح 15 عقدة من الغرب/الجنوب الغربي تتزايد حتى 25 عقدة
الرؤية 10 كم أو أكثر
غيوم قليلة على ارتفاع 3000 قدم

TAF: OSDI 160500Z 1606/1712 22010KT CAVOK TEMPO 1612/1618 25015G25KT 9999 FEW030

أرصاد الطقس والتوقعات من أكثر من 4000 مطار (تقارير الطقس للمطار METAR والتنبؤ بالطقس بالمطارTAF).

المحطات المتاحة هي النقط الصفراء والحمراء على الخريطة.

حرك المؤشر فوق النقطة لمعرفة اسم المحطة.

ثم انقر لمعرفة أرصاد وتوقعات الطقس.

لتغيير الخارطة: اضغط على الأزرار الخضراء مع رمز الصليب الأسود للتكبير. على الزر الأخضر مع شرطة للتصغير، أو على الأسهم الخضراء للخرائط المجاورة.


METAR-TAF: